Time;durP1;ratioP1;P1;durP2;ratioP2;P2;SDS_P1;SDS_P2;PMS_P1;PMS_P2;Temp;Humidity;BMP_temperature;BMP_pressure;BME280_temperature;BME280_humidity;BME280_pressure;Samples;Min_cycle;Max_cycle;Signal;HPM_P1;HPM_P2
2020/12/10 00:00:40;;;;;;;49.13;30.40;;;;;;;-144.99;100.00;52537.78;5026359;28;20718;-73
2020/12/10 00:03:07;;;;;;;69.23;34.23;;;;;;;-144.99;100.00;52517.41;5029071;28;20609;-74
2020/12/10 00:05:33;;;;;;;52.97;29.20;;;;;;;-144.99;100.00;52564.28;5028956;28;20636;-73
2020/12/10 00:07:59;;;;;;;53.53;27.70;;;;;;;-144.99;100.00;52550.00;5030492;28;20715;-74
2020/12/10 00:10:25;;;;;;;48.53;27.77;;;;;;;-144.99;100.00;52529.63;5029138;28;20728;-73
2020/12/10 00:12:51;;;;;;;54.10;28.57;;;;;;;-144.99;100.00;52517.41;5030313;28;20697;-72
2020/12/10 00:15:17;;;;;;;45.57;26.87;;;;;;;-144.99;100.00;52529.63;5034663;28;20720;-73
2020/12/10 00:17:43;;;;;;;56.10;30.90;;;;;;;-144.99;100.00;52543.91;5030877;28;20652;-76
2020/12/10 00:20:11;;;;;;;42.13;26.03;;;;;;;-144.99;100.00;52513.31;5030016;28;20760;-75
2020/12/10 00:22:37;;;;;;;52.20;27.00;;;;;;;-144.99;100.00;52511.28;5027802;28;20672;-76
2020/12/10 00:25:05;;;;;;;47.17;28.00;;;;;;;-144.99;100.00;52509.25;5034143;28;20736;-76
2020/12/10 00:27:31;;;;;;;50.43;24.73;;;;;;;-144.99;100.00;52545.94;5030443;28;20625;-76
2020/12/10 00:29:57;;;;;;;50.03;28.83;;;;;;;-144.99;100.00;52509.25;5028281;28;21233;-75
2020/12/10 00:32:24;;;;;;;40.20;23.13;;;;;;;-144.99;100.00;52511.28;5030044;28;20640;-76
2020/12/10 00:34:50;;;;;;;49.87;25.27;;;;;;;-144.99;100.00;52541.84;5029595;28;20651;-76
2020/12/10 00:37:17;;;;;;;45.50;24.40;;;;;;;-144.99;100.00;52541.84;5030026;28;20617;-76
2020/12/10 00:39:43;;;;;;;47.17;24.70;;;;;;;-144.99;100.00;52545.94;5028219;28;20966;-75
2020/12/10 00:42:10;;;;;;;48.80;26.87;;;;;;;-144.99;100.00;52550.00;5029781;28;20731;-76
2020/12/10 00:44:36;;;;;;;43.97;27.93;;;;;;;-144.99;100.00;52537.78;5032562;28;21044;-74
2020/12/10 00:47:02;;;;;;;56.60;31.00;;;;;;;-144.99;100.00;52484.78;5031846;28;20704;-75
2020/12/10 00:49:28;;;;;;;60.67;32.43;;;;;;;-144.99;100.00;52550.00;5028371;28;21344;-76
2020/12/10 00:51:55;;;;;;;54.17;27.07;;;;;;;-144.99;100.00;52531.66;5027583;28;20694;-76
2020/12/10 00:54:22;;;;;;;50.20;26.87;;;;;;;-144.99;100.00;52529.63;5029548;28;20692;-75
2020/12/10 00:56:49;;;;;;;53.63;26.10;;;;;;;-144.99;100.00;52517.41;5034177;28;20699;-74
2020/12/10 00:59:15;;;;;;;48.27;28.70;;;;;;;-144.99;100.00;52552.03;5047273;28;20694;-72
2020/12/10 01:01:43;;;;;;;47.87;26.87;;;;;;;-144.99;100.00;52562.25;5032573;28;20767;-74
2020/12/10 01:04:09;;;;;;;50.27;29.00;;;;;;;-144.99;100.00;52513.31;5026185;28;20716;-73
2020/12/10 01:06:36;;;;;;;47.17;27.70;;;;;;;-144.99;100.00;52521.47;5034613;28;21061;-72
2020/12/10 01:09:04;;;;;;;54.63;26.50;;;;;;;-144.99;100.00;52541.84;5025625;28;20666;-74
2020/12/10 01:11:31;;;;;;;49.27;28.13;;;;;;;-144.99;100.00;52490.91;5027469;28;20672;-73
2020/12/10 01:13:57;;;;;;;49.63;29.33;;;;;;;-144.99;100.00;52541.84;5026011;28;20680;-73
2020/12/10 01:16:24;;;;;;;57.60;31.87;;;;;;;-144.99;100.00;52566.31;5023004;28;20740;-73
2020/12/10 01:18:50;;;;;;;52.20;26.60;;;;;;;-144.99;100.00;52541.84;5015799;28;20660;-74
2020/12/10 01:21:27;;;;;;;46.23;26.20;;;;;;;-144.99;100.00;52554.09;5027272;28;20652;-74
2020/12/10 01:23:53;;;;;;;49.20;24.97;;;;;;;-144.99;100.00;52541.84;5027986;28;21195;-73
2020/12/10 01:26:19;;;;;;;54.50;26.10;;;;;;;-144.99;100.00;52497.00;5028897;28;20731;-73
2020/12/10 01:28:46;;;;;;;57.07;29.70;;;;;;;-144.99;100.00;52541.84;5023166;28;20716;-74
2020/12/10 01:31:13;;;;;;;47.70;27.87;;;;;;;-144.99;100.00;52521.47;5029023;28;20745;-74
2020/12/10 01:33:39;;;;;;;55.57;29.20;;;;;;;-144.99;100.00;52521.47;5024290;28;20703;-73
2020/12/10 01:36:05;;;;;;;45.47;23.00;;;;;;;-144.99;100.00;52562.25;5027993;28;20698;-74
2020/12/10 01:38:31;;;;;;;54.30;28.67;;;;;;;-144.99;100.00;52541.84;5028640;28;20633;-76
2020/12/10 01:40:57;;;;;;;55.00;27.53;;;;;;;-144.99;100.00;52497.00;5026638;28;20756;-75
2020/12/10 01:43:23;;;;;;;53.20;29.37;;;;;;;-144.99;100.00;52539.81;5027796;28;20713;-75
2020/12/10 01:45:50;;;;;;;56.23;28.67;;;;;;;-144.99;100.00;52574.47;5027917;28;20671;-75
2020/12/10 01:48:16;;;;;;;48.00;26.57;;;;;;;-144.99;100.00;52529.63;5027324;28;20652;-74
2020/12/10 01:50:43;;;;;;;48.50;27.00;;;;;;;-144.99;100.00;52562.25;5027044;28;20728;-74
2020/12/10 01:53:09;;;;;;;52.13;25.20;;;;;;;-144.99;100.00;52541.84;5029483;28;21251;-74
2020/12/10 01:55:35;;;;;;;50.50;27.40;;;;;;;-144.99;100.00;52521.47;5031873;28;20640;-74
2020/12/10 01:58:01;;;;;;;45.70;23.87;;;;;;;-144.99;100.00;52582.63;5031290;28;21254;-75
2020/12/10 02:00:27;;;;;;;71.53;30.60;;;;;;;-144.99;100.00;52547.97;5030604;28;20744;-75
2020/12/10 02:02:58;;;;;;;54.20;31.13;;;;;;;-144.99;100.00;52582.63;5009461;28;659813;-75
2020/12/10 02:05:24;;;;;;;59.00;30.50;;;;;;;-144.99;100.00;52529.63;5032039;28;20222;-76
2020/12/10 02:07:51;;;;;;;51.13;30.03;;;;;;;-144.99;100.00;52558.16;5027728;28;20723;-75
2020/12/10 02:10:17;;;;;;;59.53;35.83;;;;;;;-144.99;100.00;52570.38;5035829;28;20625;-75
2020/12/10 02:12:43;;;;;;;54.67;33.77;;;;;;;-144.99;100.00;52517.41;5032611;28;21044;-75
2020/12/10 02:15:09;;;;;;;53.43;29.57;;;;;;;-144.99;100.00;52545.94;5038153;28;20666;-75
2020/12/10 02:17:35;;;;;;;53.43;27.40;;;;;;;-144.99;100.00;52537.78;5032162;28;20720;-75
2020/12/10 02:20:03;;;;;;;61.13;27.33;;;;;;;-144.99;100.00;52560.19;5038208;28;20732;-75
2020/12/10 02:22:29;;;;;;;55.30;29.40;;;;;;;-144.99;100.00;52550.00;5029785;28;20656;-74
2020/12/10 02:24:56;;;;;;;53.83;33.43;;;;;;;-144.99;100.00;52562.25;5032098;28;21019;-74
2020/12/10 02:27:22;;;;;;;48.37;27.17;;;;;;;-144.99;100.00;52517.41;5033154;28;20725;-75
2020/12/10 02:29:48;;;;;;;65.03;31.10;;;;;;;-144.99;100.00;52525.56;5033498;28;20735;-74
2020/12/10 02:32:14;;;;;;;65.07;34.67;;;;;;;-144.99;100.00;52574.47;5031022;28;21133;-74
2020/12/10 02:34:40;;;;;;;63.70;33.03;;;;;;;-144.99;100.00;52533.69;5032039;28;20652;-74
2020/12/10 02:37:07;;;;;;;69.77;35.17;;;;;;;-144.99;100.00;52570.38;5031456;28;20640;-73
2020/12/10 02:39:33;;;;;;;67.90;36.87;;;;;;;-144.99;100.00;52550.00;5034788;28;20660;-73
2020/12/10 02:42:00;;;;;;;63.17;34.10;;;;;;;-144.99;100.00;52533.69;5038462;28;21076;-73
2020/12/10 02:44:26;;;;;;;72.90;41.50;;;;;;;-144.99;100.00;52521.47;5031909;28;20633;-75
2020/12/10 02:46:52;;;;;;;67.83;35.13;;;;;;;-144.99;100.00;52517.41;5031213;28;20656;-74
2020/12/10 02:49:18;;;;;;;71.70;35.37;;;;;;;-144.99;100.00;52525.56;5029506;28;20795;-73
2020/12/10 02:51:44;;;;;;;60.70;35.17;;;;;;;-144.99;100.00;52527.59;5033308;28;20695;-75
2020/12/10 02:54:10;;;;;;;66.67;34.77;;;;;;;-144.99;100.00;52582.63;5031498;28;20840;-75
2020/12/10 02:56:36;;;;;;;69.93;37.80;;;;;;;-144.99;100.00;52509.25;5032188;28;20711;-77
2020/12/10 02:59:03;;;;;;;73.13;43.40;;;;;;;-144.99;100.00;52525.56;5029867;28;20661;-76
2020/12/10 03:04:01;;;;;;;79.23;40.03;;;;;;;-144.99;100.00;52541.84;5009021;28;21261;-70
2020/12/10 03:06:27;;;;;;;81.23;41.93;;;;;;;-144.99;100.00;52566.31;5007422;28;21200;-70
2020/12/10 03:08:53;;;;;;;90.93;43.97;;;;;;;-144.99;100.00;52590.78;5023270;28;20712;-70
2020/12/10 03:11:19;;;;;;;71.67;40.87;;;;;;;-144.99;100.00;52513.31;5012646;28;20732;-69
2020/12/10 03:13:45;;;;;;;95.63;48.00;;;;;;;-144.99;100.00;52560.19;4999261;28;20930;-70
2020/12/10 03:16:12;;;;;;;115.17;44.60;;;;;;;-144.99;100.00;52529.63;5011491;28;21243;-69
2020/12/10 03:18:38;;;;;;;90.60;48.50;;;;;;;-144.99;100.00;52558.16;5004124;28;20663;-67
2020/12/10 03:21:04;;;;;;;78.07;43.77;;;;;;;-144.99;100.00;52513.31;5001771;28;20643;-69
2020/12/10 03:23:30;;;;;;;97.80;42.20;;;;;;;-144.99;100.00;52521.47;4988487;28;21080;-70
2020/12/10 03:25:57;;;;;;;111.73;50.23;;;;;;;-144.99;100.00;52537.78;4998843;28;20668;-68
2020/12/10 03:28:23;;;;;;;95.73;46.53;;;;;;;-144.99;100.00;52541.84;5008966;28;20643;-67
2020/12/10 03:30:49;;;;;;;106.50;49.20;;;;;;;-144.99;100.00;52566.31;5001490;28;21120;-68
2020/12/10 03:33:16;;;;;;;69.53;44.77;;;;;;;-144.99;100.00;52533.69;5009564;28;20676;-67
2020/12/10 03:35:42;;;;;;;77.20;41.43;;;;;;;-144.99;100.00;52525.56;5002425;28;20736;-67
2020/12/10 03:38:08;;;;;;;80.80;41.93;;;;;;;-144.99;100.00;52533.69;5011261;28;20657;-68
2020/12/10 03:40:34;;;;;;;79.40;39.77;;;;;;;-144.99;100.00;52497.00;4999627;28;20669;-70
2020/12/10 03:43:00;;;;;;;87.83;44.43;;;;;;;-144.99;100.00;52509.25;5001228;28;21028;-67
2020/12/10 03:45:27;;;;;;;71.80;37.20;;;;;;;-144.99;100.00;52558.16;5001207;28;20665;-69
2020/12/10 03:47:53;;;;;;;65.43;35.43;;;;;;;-144.99;100.00;52533.69;5002071;28;20665;-67
2020/12/10 03:50:20;;;;;;;66.13;35.87;;;;;;;-144.99;100.00;52541.84;4998935;28;21043;-67
2020/12/10 03:52:46;;;;;;;70.23;37.73;;;;;;;-144.99;100.00;52513.31;5006174;28;20741;-67
2020/12/10 03:55:12;;;;;;;69.37;36.43;;;;;;;-144.99;100.00;52525.56;4999047;28;20745;-69
2020/12/10 03:57:38;;;;;;;88.60;40.67;;;;;;;-144.99;100.00;52558.16;4990280;28;20730;-68
2020/12/10 04:00:05;;;;;;;72.07;35.93;;;;;;;-144.99;100.00;52517.41;4991072;28;20737;-68
2020/12/10 04:02:31;;;;;;;79.90;38.87;;;;;;;-144.99;100.00;52558.16;5004926;28;20764;-69
2020/12/10 04:04:57;;;;;;;79.67;45.37;;;;;;;-144.99;100.00;52558.16;5001310;28;20650;-69
2020/12/10 04:07:24;;;;;;;63.77;36.27;;;;;;;-144.99;100.00;52572.44;5003782;28;20705;-69
2020/12/10 04:09:50;;;;;;;97.70;47.97;;;;;;;-144.99;100.00;52572.44;4998913;28;20662;-69
2020/12/10 04:12:16;;;;;;;66.87;37.60;;;;;;;-144.99;100.00;52539.81;5005708;28;21522;-69
2020/12/10 04:14:42;;;;;;;64.00;39.97;;;;;;;-144.99;100.00;52550.00;5004462;28;20700;-69
2020/12/10 04:17:08;;;;;;;59.97;38.87;;;;;;;-144.99;100.00;52586.69;5008450;28;20992;-68
2020/12/10 04:19:34;;;;;;;63.23;38.80;;;;;;;-144.99;100.00;52574.47;4997103;28;20728;-68
2020/12/10 04:22:00;;;;;;;75.67;39.83;;;;;;;-144.99;100.00;52541.84;4999294;28;20766;-69
2020/12/10 04:24:27;;;;;;;72.70;39.57;;;;;;;-144.99;100.00;52529.63;4996332;28;20733;-69
2020/12/10 04:26:54;;;;;;;68.23;37.20;;;;;;;-144.99;100.00;52509.25;5001523;28;20635;-68
2020/12/10 04:29:20;;;;;;;70.93;36.17;;;;;;;-144.99;100.00;52564.28;5004375;28;20974;-68
2020/12/10 04:31:46;;;;;;;58.77;35.53;;;;;;;-144.99;100.00;52533.69;4991811;28;20801;-69
2020/12/10 04:34:12;;;;;;;65.27;38.00;;;;;;;-144.99;100.00;52564.28;5006216;28;21245;-69
2020/12/10 04:36:39;;;;;;;61.67;31.50;;;;;;;-144.99;100.00;52539.81;5009726;28;20622;-70
2020/12/10 04:39:05;;;;;;;54.83;31.27;;;;;;;-144.99;100.00;52607.09;5004520;28;21228;-69
2020/12/10 04:41:35;;;;;;;64.33;36.93;;;;;;;-144.99;100.00;52541.84;4995726;28;20729;-69
2020/12/10 04:44:01;;;;;;;53.73;31.60;;;;;;;-144.99;100.00;52578.53;5003360;28;20725;-67
2020/12/10 04:46:30;;;;;;;61.63;33.30;;;;;;;-144.99;100.00;52545.94;4996992;28;20661;-69
2020/12/10 04:48:57;;;;;;;51.90;31.87;;;;;;;-144.99;100.00;52521.47;5001143;28;20673;-69
2020/12/10 04:51:26;;;;;;;64.03;34.37;;;;;;;-144.99;100.00;52513.31;4997122;28;20677;-68
2020/12/10 04:53:53;;;;;;;75.17;38.03;;;;;;;-144.99;100.00;52513.31;4991413;28;20753;-68
2020/12/10 04:56:19;;;;;;;70.00;39.37;;;;;;;-144.99;100.00;52568.34;4994145;28;20817;-69
2020/12/10 04:58:47;;;;;;;59.57;36.30;;;;;;;-144.99;100.00;52525.56;4988357;28;20639;-69
2020/12/10 05:01:15;;;;;;;61.37;32.97;;;;;;;-144.99;100.00;52558.16;5003060;28;20649;-69
2020/12/10 05:03:45;;;;;;;54.43;36.50;;;;;;;-144.99;100.00;52517.41;5005887;28;20656;-68
2020/12/10 05:06:12;;;;;;;57.97;34.13;;;;;;;-144.99;100.00;52558.16;5000355;28;20725;-69
2020/12/10 05:08:39;;;;;;;51.00;33.77;;;;;;;-144.99;100.00;52556.13;5010169;28;20643;-69
2020/12/10 05:11:05;;;;;;;55.87;32.97;;;;;;;-144.99;100.00;52531.66;4998502;28;20684;-69
2020/12/10 05:13:31;;;;;;;69.43;38.37;;;;;;;-144.99;100.00;52519.44;5003609;28;20877;-70
2020/12/10 05:15:58;;;;;;;48.40;29.57;;;;;;;-144.99;100.00;52537.78;4996870;28;20665;-69
2020/12/10 05:18:24;;;;;;;48.77;32.60;;;;;;;-144.99;100.00;52545.94;5001824;28;20661;-69
2020/12/10 05:20:52;;;;;;;53.37;28.43;;;;;;;-144.99;100.00;52501.09;5006751;28;21050;-69
2020/12/10 05:23:29;;;;;;;54.23;35.80;;;;;;;-144.99;100.00;52517.41;4982757;28;21184;-69
2020/12/10 05:25:56;;;;;;;54.13;29.53;;;;;;;-144.99;100.00;52537.78;5000279;28;21003;-69
2020/12/10 05:28:24;;;;;;;50.10;30.57;;;;;;;-144.99;100.00;52545.94;5002250;28;21233;-68
2020/12/10 05:31:03;;;;;;;46.57;27.33;;;;;;;-144.99;100.00;52519.44;4998736;28;20707;-68
2020/12/10 05:33:29;;;;;;;51.27;31.00;;;;;;;-144.99;100.00;52558.16;4996870;28;20762;-68
2020/12/10 05:36:06;;;;;;;51.73;31.93;;;;;;;-144.99;100.00;52517.41;4998554;28;20792;-68
2020/12/10 05:38:32;;;;;;;45.13;28.73;;;;;;;-144.99;100.00;52533.69;4996093;28;21041;-68
2020/12/10 05:41:20;;;;;;;47.20;29.40;;;;;;;-144.99;100.00;52537.78;5007360;28;20955;-67
2020/12/10 05:43:46;;;;;;;57.07;28.43;;;;;;;-144.99;100.00;52501.09;5007924;28;20688;-67
2020/12/10 05:46:16;;;;;;;50.67;31.37;;;;;;;-144.99;100.00;52537.78;4992620;28;21211;-68
2020/12/10 05:48:44;;;;;;;41.13;27.57;;;;;;;-144.99;100.00;52517.41;4999464;28;21059;-68
2020/12/10 05:51:15;;;;;;;40.07;26.20;;;;;;;-144.99;100.00;52521.47;5009501;28;20688;-68
2020/12/10 05:53:42;;;;;;;38.63;27.27;;;;;;;-144.99;100.00;52574.47;4998041;28;20828;-68
2020/12/10 05:56:11;;;;;;;44.70;28.10;;;;;;;-144.99;100.00;52533.69;4999782;28;20641;-70
2020/12/10 05:58:47;;;;;;;41.33;29.07;;;;;;;-144.99;100.00;52527.59;4989536;28;20638;-69
2020/12/10 06:01:25;;;;;;;45.80;32.57;;;;;;;-144.99;100.00;52578.53;5003672;28;21205;-70
2020/12/10 06:03:53;;;;;;;42.70;29.70;;;;;;;-144.99;100.00;52529.63;4999068;28;20646;-70
2020/12/10 06:06:20;;;;;;;42.10;28.07;;;;;;;-144.99;100.00;52537.78;4995203;28;20741;-70
2020/12/10 06:08:49;;;;;;;47.47;28.50;;;;;;;-144.99;100.00;52562.25;5007748;28;20636;-69
2020/12/10 06:11:18;;;;;;;54.67;30.73;;;;;;;-144.99;100.00;52547.97;5000624;28;21199;-69
2020/12/10 06:13:44;;;;;;;45.97;25.27;;;;;;;-144.99;100.00;52570.38;4996754;28;20664;-69
2020/12/10 06:16:18;;;;;;;51.97;29.07;;;;;;;-144.99;100.00;52598.94;5003757;28;20637;-70
2020/12/10 06:19:00;;;;;;;48.27;28.10;;;;;;;-144.99;100.00;52533.69;5000632;28;20637;-70
2020/12/10 06:21:47;;;;;;;50.87;29.57;;;;;;;-144.99;100.00;52539.81;5000841;28;20626;-70
2020/12/10 06:24:33;;;;;;;57.47;33.23;;;;;;;-144.99;100.00;52574.47;4990443;28;20879;-70
2020/12/10 06:27:00;;;;;;;58.73;28.07;;;;;;;-144.99;100.00;52558.16;5003536;28;20632;-69
2020/12/10 06:29:28;;;;;;;46.47;26.13;;;;;;;-144.99;100.00;52529.63;4997981;28;20654;-72
2020/12/10 06:32:10;;;;;;;44.57;25.60;;;;;;;-144.99;100.00;52570.38;5003655;28;20741;-69
2020/12/10 06:34:41;;;;;;;48.77;27.40;;;;;;;-144.99;100.00;52582.63;4991620;28;20653;-71
2020/12/10 06:37:15;;;;;;;50.23;32.40;;;;;;;-144.99;100.00;52525.56;5004258;28;20645;-70
2020/12/10 06:39:41;;;;;;;47.80;25.43;;;;;;;-144.99;100.00;52509.25;4987276;28;20672;-68
2020/12/10 06:42:08;;;;;;;47.43;28.20;;;;;;;-144.99;100.00;52537.78;5003112;28;20728;-70
2020/12/10 06:44:35;;;;;;;53.50;31.00;;;;;;;-144.99;100.00;52521.47;5009496;28;20632;-70
2020/12/10 06:47:01;;;;;;;46.00;27.27;;;;;;;-144.99;100.00;52562.25;5000709;28;20642;-70
2020/12/10 06:49:30;;;;;;;44.53;29.77;;;;;;;-144.99;100.00;52545.94;5002046;28;20692;-71
2020/12/10 06:52:15;;;;;;;41.73;27.70;;;;;;;-144.99;100.00;52570.38;5002265;28;20661;-70
2020/12/10 06:55:10;;;;;;;37.50;24.07;;;;;;;-144.99;100.00;52517.41;4999072;28;20761;-71
2020/12/10 06:58:05;;;;;;;42.37;27.47;;;;;;;-144.99;100.00;52541.84;4990372;28;20704;-71
2020/12/10 07:00:36;;;;;;;43.53;23.00;;;;;;;-144.99;100.00;52533.69;4993643;28;20637;-71
2020/12/10 07:03:16;;;;;;;41.83;24.03;;;;;;;-144.99;100.00;52545.94;5005722;28;21253;-70
2020/12/10 07:05:44;;;;;;;47.63;30.70;;;;;;;-144.99;100.00;52541.84;5001683;28;21214;-69
2020/12/10 07:08:12;;;;;;;43.20;24.17;;;;;;;-144.99;100.00;52537.78;5011558;28;20618;-69
2020/12/10 07:10:40;;;;;;;46.60;25.57;;;;;;;-144.99;100.00;52525.56;4998407;28;21003;-69
2020/12/10 07:13:06;;;;;;;46.03;28.87;;;;;;;-144.99;100.00;52531.66;5005417;28;20675;-70
2020/12/10 07:15:32;;;;;;;47.03;24.40;;;;;;;-144.99;100.00;52594.84;5004237;28;20652;-71
2020/12/10 07:18:01;;;;;;;42.40;26.40;;;;;;;-144.99;100.00;52545.94;4994002;28;21185;-76
2020/12/10 07:20:29;;;;;;;47.80;32.43;;;;;;;-144.99;100.00;52523.50;5000635;28;20613;-75
2020/12/10 07:22:56;;;;;;;53.87;27.50;;;;;;;-144.99;100.00;52550.00;4987032;28;20665;-76
2020/12/10 07:25:23;;;;;;;42.90;28.60;;;;;;;-144.99;100.00;52523.50;4998513;28;20648;-76
2020/12/10 07:27:49;;;;;;;42.50;26.63;;;;;;;-144.99;100.00;52533.69;5001481;28;21195;-77
2020/12/10 07:30:16;;;;;;;46.17;26.63;;;;;;;-144.99;100.00;52580.59;5003376;28;20614;-76
2020/12/10 07:32:44;;;;;;;47.20;26.23;;;;;;;-144.99;100.00;52497.00;5005962;28;20684;-77
2020/12/10 07:35:10;;;;;;;49.27;28.20;;;;;;;-144.99;100.00;52554.09;5004039;28;20672;-75
2020/12/10 07:37:37;;;;;;;39.17;28.67;;;;;;;-144.99;100.00;52539.81;4995270;28;20670;-76
2020/12/10 07:40:12;;;;;;;61.23;31.93;;;;;;;-144.99;100.00;52521.47;5009172;28;21048;-77
2020/12/10 07:42:38;;;;;;;62.47;31.73;;;;;;;-144.99;100.00;52554.09;5000362;28;20688;-74
2020/12/10 07:45:12;;;;;;;59.27;31.17;;;;;;;-144.99;100.00;52521.47;5001795;28;20711;-72
2020/12/10 07:47:39;;;;;;;57.03;31.90;;;;;;;-144.99;100.00;52552.03;4996226;28;21004;-74
2020/12/10 07:50:20;;;;;;;50.50;30.20;;;;;;;-144.99;100.00;52505.16;5005946;28;20736;-74
2020/12/10 07:52:48;;;;;;;51.83;28.03;;;;;;;-144.99;100.00;52564.28;4996701;28;20673;-74
2020/12/10 07:55:19;;;;;;;48.63;28.87;;;;;;;-144.99;100.00;52566.31;5001710;28;20662;-74
2020/12/10 07:57:52;;;;;;;58.47;35.53;;;;;;;-144.99;100.00;52541.84;5006317;28;20688;-75
2020/12/10 08:00:19;;;;;;;64.50;34.10;;;;;;;-144.99;100.00;52521.47;5006134;28;21237;-74
2020/12/10 08:02:55;;;;;;;63.97;36.73;;;;;;;-144.99;100.00;52558.16;5001932;28;20678;-75
2020/12/10 08:05:21;;;;;;;73.63;35.53;;;;;;;-144.99;100.00;52550.00;4999768;28;20714;-74
2020/12/10 08:07:49;;;;;;;60.30;34.57;;;;;;;-144.99;100.00;52533.69;5007898;28;20740;-74
2020/12/10 08:10:24;;;;;;;63.20;29.67;;;;;;;-144.99;100.00;52525.56;5010465;28;20812;-71
2020/12/10 08:13:12;;;;;;;64.73;32.93;;;;;;;-144.99;100.00;52562.25;4979088;28;20657;-71
2020/12/10 08:15:40;;;;;;;52.60;31.93;;;;;;;-144.99;100.00;52521.47;4989052;28;20670;-70
2020/12/10 08:18:07;;;;;;;60.00;34.07;;;;;;;-144.99;100.00;52562.25;5003406;28;20642;-72
2020/12/10 08:20:40;;;;;;;58.20;32.23;;;;;;;-144.99;100.00;52568.34;5002642;28;20676;-71
2020/12/10 08:23:06;;;;;;;56.40;33.60;;;;;;;-144.99;100.00;52529.63;4987990;28;20673;-72
2020/12/10 08:25:33;;;;;;;54.17;31.53;;;;;;;-144.99;100.00;52525.56;4992684;28;20658;-71
2020/12/10 08:28:00;;;;;;;53.93;32.07;;;;;;;-144.99;100.00;52519.44;5001177;28;20922;-71
2020/12/10 08:30:26;;;;;;;57.53;34.93;;;;;;;-144.99;100.00;52521.47;5006167;28;20625;-72
2020/12/10 08:32:52;;;;;;;68.90;32.10;;;;;;;-144.99;100.00;52537.78;5001309;28;20756;-71
2020/12/10 08:35:19;;;;;;;55.20;29.50;;;;;;;-144.99;100.00;52550.00;4998353;28;20765;-71
2020/12/10 08:37:46;;;;;;;57.67;30.40;;;;;;;-144.99;100.00;52550.00;5006302;28;20741;-71
2020/12/10 08:40:23;;;;;;;58.13;31.53;;;;;;;-144.99;100.00;52527.59;5007480;28;20703;-70
2020/12/10 08:42:50;;;;;;;65.90;33.40;;;;;;;-144.99;100.00;52550.00;5009262;28;20671;-70
2020/12/10 08:45:29;;;;;;;65.43;34.60;;;;;;;-144.99;100.00;52529.63;5003779;28;20635;-70
2020/12/10 08:47:58;;;;;;;69.23;36.63;;;;;;;-144.99;100.00;52554.09;4998126;28;21230;-70
2020/12/10 08:50:26;;;;;;;57.37;29.80;;;;;;;-144.99;100.00;52586.69;5007927;28;20668;-71
2020/12/10 08:53:07;;;;;;;47.80;28.27;;;;;;;-144.99;100.00;52550.00;5010310;28;20657;-70
2020/12/10 08:55:38;;;;;;;72.40;33.67;;;;;;;-144.99;100.00;52545.94;5001030;28;20650;-71
2020/12/10 08:58:06;;;;;;;67.17;35.73;;;;;;;-144.99;100.00;52556.13;4999536;28;20662;-70
2020/12/10 09:00:36;;;;;;;57.97;33.47;;;;;;;-144.99;100.00;52574.47;5002455;28;20726;-72
2020/12/10 09:03:02;;;;;;;67.43;35.27;;;;;;;-144.99;100.00;52578.53;5040729;22;20736;-76
2020/12/10 09:05:28;;;;;;;63.37;31.50;;;;;;;-144.99;100.00;52529.63;5017485;28;20751;-77
2020/12/10 09:07:54;;;;;;;49.33;29.87;;;;;;;-144.99;100.00;52566.31;5044342;28;20631;-74
2020/12/10 09:10:20;;;;;;;48.33;27.13;;;;;;;-144.99;100.00;52501.09;5041626;28;20701;-74
2020/12/10 09:12:47;;;;;;;49.30;26.80;;;;;;;-144.99;100.00;52554.09;5024273;28;20681;-74
2020/12/10 09:15:14;;;;;;;43.07;26.83;;;;;;;-144.99;100.00;52523.50;5015278;28;20652;-76
2020/12/10 09:17:40;;;;;;;47.73;25.67;;;;;;;-144.99;100.00;52521.47;5024537;28;20685;-75
2020/12/10 09:20:06;;;;;;;47.43;27.13;;;;;;;-144.99;100.00;52541.84;5011653;28;20669;-73
2020/12/10 09:22:32;;;;;;;45.10;27.57;;;;;;;-144.99;100.00;52550.00;5008919;28;20796;-76
2020/12/10 09:24:58;;;;;;;44.90;23.73;;;;;;;-144.99;100.00;52582.63;5007386;28;20633;-76
2020/12/10 09:27:25;;;;;;;48.23;26.53;;;;;;;-144.99;100.00;52537.78;5016733;28;20716;-76
2020/12/10 09:29:51;;;;;;;36.70;27.70;;;;;;;-144.99;100.00;52552.03;5005705;28;21130;-76
2020/12/10 09:32:18;;;;;;;39.17;22.20;;;;;;;-144.99;100.00;52562.25;5006993;28;20680;-75
2020/12/10 09:34:44;;;;;;;46.13;25.03;;;;;;;-144.99;100.00;52578.53;5011381;28;20700;-76
2020/12/10 09:37:10;;;;;;;40.20;25.43;;;;;;;-144.99;100.00;52529.63;5013932;28;20691;-76
2020/12/10 09:39:37;;;;;;;44.20;27.17;;;;;;;-144.99;100.00;52525.56;5017379;28;20664;-75
2020/12/10 09:42:04;;;;;;;42.47;27.30;;;;;;;-144.99;100.00;52545.94;5017125;28;20759;-75
2020/12/10 09:44:31;;;;;;;44.23;24.67;;;;;;;-144.99;100.00;52523.50;5026888;28;21190;-75
2020/12/10 09:46:57;;;;;;;45.33;24.97;;;;;;;-144.99;100.00;52525.56;5017112;28;21065;-76
2020/12/10 09:49:24;;;;;;;51.03;29.00;;;;;;;-144.99;100.00;52537.78;5023794;28;20663;-76
2020/12/10 09:51:53;;;;;;;50.27;28.50;;;;;;;-144.99;100.00;52552.03;5017887;28;20708;-76
2020/12/10 09:54:31;;;;;;;53.27;30.13;;;;;;;-144.99;100.00;52566.31;5020267;28;20673;-76
2020/12/10 09:57:07;;;;;;;49.23;30.03;;;;;;;-144.99;100.00;52505.16;5018156;28;20629;-75
2020/12/10 09:59:35;;;;;;;60.43;31.87;;;;;;;-144.99;100.00;52541.84;5015421;28;20711;-74
2020/12/10 10:02:02;;;;;;;59.47;31.93;;;;;;;-144.99;100.00;52509.25;5018767;28;21226;-75
2020/12/10 10:04:30;;;;;;;70.50;33.17;;;;;;;-144.99;100.00;52543.91;5013727;28;20620;-75
2020/12/10 10:06:56;;;;;;;57.93;36.67;;;;;;;-144.99;100.00;52560.19;5017405;28;21195;-75
2020/12/10 10:09:24;;;;;;;56.57;32.47;;;;;;;-144.99;100.00;52537.78;5014952;28;20691;-74
2020/12/10 10:11:51;;;;;;;58.03;34.63;;;;;;;-144.99;100.00;52505.16;5024709;28;20609;-75
2020/12/10 10:14:17;;;;;;;58.23;33.87;;;;;;;-144.99;100.00;52533.69;5006887;28;20744;-74
2020/12/10 10:16:44;;;;;;;72.70;33.77;;;;;;;-144.99;100.00;52527.59;5015698;28;20736;-74
2020/12/10 10:19:10;;;;;;;63.90;31.77;;;;;;;-144.99;100.00;52558.16;5020795;28;20719;-74
2020/12/10 10:21:37;;;;;;;61.17;33.37;;;;;;;-144.99;100.00;52554.09;5023620;28;20695;-74
2020/12/10 10:24:03;;;;;;;68.90;35.67;;;;;;;-144.99;100.00;52594.84;5003271;28;20630;-74
2020/12/10 10:26:29;;;;;;;60.50;35.20;;;;;;;-144.99;100.00;52497.00;5011902;28;20660;-75
2020/12/10 10:28:55;;;;;;;60.13;32.50;;;;;;;-144.99;100.00;52566.31;5019087;28;20691;-75
2020/12/10 10:31:21;;;;;;;59.90;35.40;;;;;;;-144.99;100.00;52537.78;5024520;28;20786;-75
2020/12/10 10:33:48;;;;;;;63.23;34.40;;;;;;;-144.99;100.00;52578.53;5015550;28;20649;-74
2020/12/10 10:36:15;;;;;;;69.43;34.97;;;;;;;-144.99;100.00;52521.47;5032235;28;21256;-74
2020/12/10 10:38:42;;;;;;;55.30;35.87;;;;;;;-144.99;100.00;52550.00;5028982;28;20632;-75
2020/12/10 10:41:08;;;;;;;63.93;34.73;;;;;;;-144.99;100.00;52554.09;5023269;28;20628;-75
2020/12/10 10:43:35;;;;;;;66.73;38.83;;;;;;;-144.99;100.00;52521.47;5019718;28;20667;-71
2020/12/10 10:46:01;;;;;;;54.20;34.10;;;;;;;-144.99;100.00;52529.63;5021939;28;20617;-74
2020/12/10 10:48:27;;;;;;;67.90;36.70;;;;;;;-144.99;100.00;52494.97;5020433;28;20657;-75
2020/12/10 10:50:54;;;;;;;72.57;39.40;;;;;;;-144.99;100.00;52550.00;5018737;28;20633;-74
2020/12/10 10:53:20;;;;;;;59.37;36.13;;;;;;;-144.99;100.00;52570.38;5023447;28;20666;-74
2020/12/10 10:55:49;;;;;;;71.93;38.63;;;;;;;-144.99;100.00;52566.31;5019588;28;20720;-75
2020/12/10 10:58:15;;;;;;;55.40;32.87;;;;;;;-144.99;100.00;52545.94;5021689;28;21166;-74
2020/12/10 11:00:41;;;;;;;53.47;30.93;;;;;;;-144.99;100.00;52509.25;5013934;28;20725;-75